Tourist.f.b.terzo — IQAQ — position and weather

sailwx.info

Track history (hours):
 
Tides and Currents Weather Stations Pressure Air Temp Water Temp Dewpoint Dewpoint Depression Visibility Wind Speed Wind Dir Waves Ship Positions

Tourist.f.b.terzo

Last reported at 2014-Aug-01 03:34 UTC. Time now 2014-Aug-01 03:51 UTC.
Position N 40°48' E 014°06'.

Length 53 m; draft 1.8 m.

Type: Ship. MMSI: 247048900.

Date/timePositionNaut miles runAvg speedWind from/ knotsBaromVisibWave heightAir tempDewpointWater temp
2014-Aug-01 03:34N 40°48' E 014°06'8 8.1
2014-Aug-01 02:34N 40°46' E 013°56'3 2.6
2014-Aug-01 01:33N 40°46' E 013°59'6 6.1
2014-Aug-01 00:33N 40°49' E 014°06'3 3.1
2014-Jul-31 23:33N 40°46' E 014°04'7 7.2
2014-Jul-31 22:33N 40°45' E 013°54'0 0.0
2014-Jul-31 21:34N 40°45' E 013°54'0 0.0
2014-Jul-31 20:34N 40°45' E 013°54'0 0.0
2014-Jul-31 19:34N 40°45' E 013°54'0 0.0
2014-Jul-31 18:33N 40°45' E 013°54'0 0.4
2014-Jul-31 17:34N 40°45' E 013°54'0 0.4
2014-Jul-31 16:33N 40°45' E 013°54'0 0.0
2014-Jul-31 15:33N 40°45' E 013°54'0 0.0
2014-Jul-31 14:33N 40°45' E 013°54'0 0.0
2014-Jul-31 13:33N 40°45' E 013°54'3 2.6
2014-Jul-31 12:33N 40°46' E 013°58'7 7.3
2014-Jul-31 11:33N 40°49' E 014°06'5 4.7
2014-Jul-31 10:33N 40°46' E 014°02'4 3.5
2014-Jul-31 09:33N 40°46' E 013°57'3 3.5
2014-Jul-31 08:33N 40°47' E 014°02'5 5.0
2014-Jul-31 07:33N 40°49' E 014°07'6 5.8
2014-Jul-31 06:33N 40°47' E 014°00'3 2.9
2014-Jul-31 05:33N 40°46' E 013°57'8 7.9
2014-Jul-31 04:33N 40°49' E 014°06'2 2.4
2014-Jul-31 03:33N 40°46' E 014°05'8 8.3
2014-Jul-31 02:33N 40°45' E 013°54'4 4.1
2014-Jul-31 01:33N 40°46' E 013°60'6 5.7
2014-Jul-31 00:33N 40°49' E 014°06'3 2.8
2014-Jul-30 23:33N 40°46' E 014°05'8 7.9
2014-Jul-30 22:33N 40°45' E 013°55'0 0.0
2014-Jul-30 21:33N 40°45' E 013°54'0 0.0
2014-Jul-30 20:33N 40°45' E 013°54'0 0.0
2014-Jul-30 19:33N 40°45' E 013°54'0 0.0
2014-Jul-30 18:33N 40°45' E 013°54'0 0.0
2014-Jul-30 17:33N 40°45' E 013°54'0 0.0
2014-Jul-30 16:33N 40°45' E 013°54'0 0.0
2014-Jul-30 15:33N 40°45' E 013°54'0 0.0
2014-Jul-30 14:33N 40°45' E 013°54'0 0.0
2014-Jul-30 13:33N 40°45' E 013°54'0 0.0
2014-Jul-30 12:34N 40°45' E 013°54'0 0.0
2014-Jul-30 11:33N 40°45' E 013°54'5 5.1
2014-Jul-30 10:34N 40°47' E 014°01'4 4.0
2014-Jul-30 09:34N 40°47' E 014°06'2 2.4
2014-Jul-30 08:33N 40°49' E 014°07'5 5.4
2014-Jul-30 07:33N 40°46' E 014°02'5 5.5
2014-Jul-30 06:34N 40°45' E 013°54'1 1.1
2014-Jul-30 05:33N 40°45' E 013°56'8 7.8
2014-Jul-30 04:34N 40°47' E 014°06'1 0.7
2014-Jul-30 03:34N 40°47' E 014°06'8 8.3
2014-Jul-30 02:33N 40°45' E 013°55'2 1.7
2014-Jul-30 01:34N 40°46' E 013°58'6 6.4
2014-Jul-30 00:33N 40°47' E 014°06'0 0.3
2014-Jul-29 23:34N 40°47' E 014°06'8 8.2
2014-Jul-29 22:33N 40°45' E 013°55'0 0.4
2014-Jul-29 21:34N 40°45' E 013°54'0 0.0
2014-Jul-29 20:33N 40°45' E 013°54'0 0.0
2014-Jul-29 19:33N 40°45' E 013°54'0 0.0
2014-Jul-29 18:34N 40°45' E 013°54'0 0.0
2014-Jul-29 17:33N 40°45' E 013°54'0 0.0
2014-Jul-29 16:33N 40°45' E 013°54'0 0.0
2014-Jul-29 15:33N 40°45' E 013°54'0 0.0
2014-Jul-29 14:33N 40°45' E 013°54'0 0.0
2014-Jul-29 13:33N 40°45' E 013°54'0 0.0
2014-Jul-29 12:33N 40°45' E 013°54'0 0.0
2014-Jul-29 11:33N 40°45' E 013°54'0 0.0
2014-Jul-29 10:33N 40°45' E 013°54'0 0.0
2014-Jul-29 09:33N 40°45' E 013°54'5 4.6
2014-Jul-29 08:33N 40°47' E 014°00'6 5.9
2014-Jul-29 07:33N 40°49' E 014°07'1 1.4
2014-Jul-29 06:33N 40°48' E 014°06'6 5.8
2014-Jul-29 05:33N 40°46' E 013°59'0 0.4
2014-Jul-29 04:33N 40°46' E 013°59'7 7.2
2014-Jul-29 03:33N 40°49' E 014°07'6 5.5
2014-Jul-29 02:33N 40°47' E 014°01'4 4.4
2014-Jul-29 01:33N 40°45' E 013°55'7 7.4
2014-Jul-29 00:33N 40°46' E 014°05'0 0.0
2014-Jul-28 23:33N 40°46' E 014°05'8 8.1
2014-Jul-28 22:33N 40°45' E 013°55'0 0.0
2014-Jul-28 21:33N 40°45' E 013°54'0 0.0
2014-Jul-28 20:33N 40°45' E 013°54'0 0.0
2014-Jul-28 19:33N 40°45' E 013°54'0 0.0
2014-Jul-28 18:33N 40°45' E 013°54'0 0.0
2014-Jul-28 17:33N 40°45' E 013°54'0 0.0
2014-Jul-28 16:33N 40°45' E 013°54'0 0.0
2014-Jul-28 15:33N 40°45' E 013°54'0 0.0
2014-Jul-28 14:33N 40°45' E 013°54'0 0.0
2014-Jul-28 13:33N 40°45' E 013°54'0 0.0
2014-Jul-28 12:33N 40°45' E 013°54'0 0.0
2014-Jul-28 11:33N 40°45' E 013°54'0 0.0
2014-Jul-28 10:33N 40°45' E 013°54'0 0.0
2014-Jul-28 09:33N 40°45' E 013°54'5 5.5
2014-Jul-28 08:33N 40°46' E 014°02'5 5.4
2014-Jul-28 07:34N 40°49' E 014°07'4 4.1
2014-Jul-28 06:34N 40°46' E 014°04'7 7.1
2014-Jul-28 05:33N 40°45' E 013°55'7 6.6
2014-Jul-28 04:34N 40°47' E 014°03'4 3.9
2014-Jul-28 03:34N 40°49' E 014°07'7 7.3
2014-Jul-28 02:34N 40°46' E 013°58'2 1.6
2014-Jul-28 01:34N 40°46' E 013°56'7 7.1
2014-Jul-28 00:33N 40°47' E 014°05'0 0.4
2014-Jul-27 23:33N 40°47' E 014°06'8 8.4
2014-Jul-27 22:34N 40°45' E 013°55'0 0.0
2014-Jul-26 10:27N 40°45' E 013°54'0 0.0
2014-Jul-26 09:33N 40°45' E 013°54'3 3.2
2014-Jul-26 08:33N 40°46' E 013°58'6 6.3
2014-Jul-26 07:33N 40°48' E 014°06'1 1.3
2014-Jul-26 06:33N 40°47' E 014°06'7 7.1
2014-Jul-26 05:33N 40°46' E 013°57'4 4.0
2014-Jul-26 04:34N 40°47' E 014°02'5 4.8
2014-Jul-26 03:33N 40°49' E 014°07'7 7.0
2014-Jul-26 02:33N 40°46' E 013°59'2 1.6
2014-Jul-26 01:33N 40°46' E 013°57'7 7.0
2014-Jul-26 00:33N 40°47' E 014°06'0 0.4
2014-Jul-25 23:33N 40°46' E 014°06'8 8.1
2014-Jul-25 22:33N 40°45' E 013°55'0 0.1
2014-Jul-25 16:33N 40°45' E 013°54'0 0.0
2014-Jul-25 15:33N 40°45' E 013°54'0 0.0
2014-Jul-25 14:33N 40°45' E 013°54'0 0.0
2014-Jul-25 13:33N 40°45' E 013°54'0 0.0
2014-Jul-25 12:33N 40°45' E 013°54'0 0.0
2014-Jul-25 11:33N 40°45' E 013°54'0 0.0
2014-Jul-25 10:34N 40°45' E 013°54'3 3.0
2014-Jul-25 09:34N 40°46' E 013°58'3 2.9
2014-Jul-25 08:33N 40°46' E 014°02'5 5.0
2014-Jul-25 07:34N 40°49' E 014°07'3 2.8
2014-Jul-25 06:33N 40°47' E 014°06'7 6.6
2014-Jul-25 05:34N 40°46' E 013°57'3 3.1
2014-Jul-25 04:34N 40°47' E 014°01'5 5.1
2014-Jul-25 03:32N 40°49' E 014°07'7 7.3
2014-Jul-25 02:34N 40°46' E 013°59'1 1.5
2014-Jul-25 01:34N 40°46' E 013°57'7 7.0
2014-Jul-25 00:34N 40°47' E 014°06'0 0.1
2014-Jul-24 23:34N 40°47' E 014°06'9 8.5
2014-Jul-24 22:34N 40°45' E 013°55'0 0.2
2014-Jul-24 21:33N 40°45' E 013°54'0 0.0
2014-Jul-24 20:33N 40°45' E 013°54'0 0.0
2014-Jul-24 19:33N 40°45' E 013°54'0 0.0
2014-Jul-24 18:33N 40°45' E 013°54'0 0.0
2014-Jul-24 17:33N 40°45' E 013°54'0 0.0
2014-Jul-24 16:33N 40°45' E 013°54'0 0.0
2014-Jul-24 12:25N 40°45' E 013°54'0 0.0
2014-Jul-24 11:34N 40°45' E 013°54'0 0.0
2014-Jul-24 10:33N 40°45' E 013°54'0 0.0
2014-Jul-24 09:33N 40°45' E 013°54'4 4.4
2014-Jul-24 08:34N 40°47' E 013°60'6 6.1
2014-Jul-24 07:34N 40°49' E 014°07'2 2.2
2014-Jul-24 06:34N 40°47' E 014°06'7 6.6
2014-Jul-24 05:34N 40°46' E 013°57'3 2.7
2014-Jul-24 04:34N 40°47' E 014°01'5 5.5
2014-Jul-24 03:34N 40°49' E 014°07'7 6.6
2014-Jul-24 02:34N 40°46' E 013°59'2 1.6
2014-Jul-24 01:33N 40°46' E 013°57'7 6.9
2014-Jul-24 00:33N 40°48' E 014°06'1 1.2
2014-Jul-23 23:34N 40°47' E 014°06'9 8.5
2014-Jul-23 22:33N 40°45' E 013°55'0 0.2
2014-Jul-23 21:33N 40°45' E 013°54'0 0.0
2014-Jul-23 20:33N 40°45' E 013°54'0 0.0
2014-Jul-23 14:17N 40°45' E 013°54'0 0.0
2014-Jul-23 11:34N 40°45' E 013°54'0 0.0
2014-Jul-23 10:33N 40°45' E 013°54'0 0.0
2014-Jul-23 09:33N 40°45' E 013°54'5 4.9
2014-Jul-23 08:33N 40°46' E 014°01'6 5.7
2014-Jul-23 07:33N 40°49' E 014°07'4 4.3
2014-Jul-23 06:33N 40°46' E 014°03'7 6.6
2014-Jul-23 05:33N 40°45' E 013°55'6 6.3
2014-Jul-23 04:33N 40°47' E 014°03'3 3.1
2014-Jul-23 03:33N 40°48' E 014°06'8 7.6
2014-Jul-23 02:33N 40°46' E 013°57'2 2.3
2014-Jul-23 01:33N 40°46' E 013°60'6 5.8
2014-Jul-23 00:33N 40°49' E 014°06'4 3.5
2014-Jul-22 23:33N 40°46' E 014°03'7 6.8
2014-Jul-22 22:33N 40°45' E 013°54'0 0.0
2014-Jul-22 21:33N 40°45' E 013°54'0 0.0
2014-Jul-22 20:33N 40°45' E 013°54'0 0.0
2014-Jul-22 19:33N 40°45' E 013°54'0 0.0
2014-Jul-22 18:33N 40°45' E 013°54'0 0.0
2014-Jul-22 15:07N 40°45' E 013°54'0 0.0
2014-Jul-22 11:33N 40°45' E 013°54'0 0.0
2014-Jul-22 10:34N 40°45' E 013°54'2 2.0
2014-Jul-22 09:33N 40°46' E 013°57'8 7.6
2014-Jul-22 08:33N 40°49' E 014°06'0 0.3
2014-Jul-22 07:33N 40°48' E 014°06'6 6.0
2014-Jul-22 06:33N 40°46' E 013°59'3 3.5
2014-Jul-22 05:34N 40°45' E 013°54'7 7.3
2014-Jul-22 04:33N 40°47' E 014°04'  
Track history (hours):
 
Tides and Currents Weather Stations Pressure Air Temp Water Temp Dewpoint Dewpoint Depression Visibility Wind Speed Wind Dir Waves Ship Positions

Tourist.f.b.terzo

Last reported at 2014-Aug-01 03:34 UTC. Time now 2014-Aug-01 03:51 UTC.
Position N 40°48' E 014°06'.

Length 53 m; draft 1.8 m.

Type: Ship. MMSI: 247048900.

Date/timePositionNaut miles runAvg speedWind from/ knotsBaromVisibWave heightAir tempDewpointWater temp
2014-Aug-01 03:34N 40°48' E 014°06'8 8.1
2014-Aug-01 02:34N 40°46' E 013°56'3 2.6
2014-Aug-01 01:33N 40°46' E 013°59'6 6.1
2014-Aug-01 00:33N 40°49' E 014°06'3 3.1
2014-Jul-31 23:33N 40°46' E 014°04'7 7.2
2014-Jul-31 22:33N 40°45' E 013°54'0 0.0
2014-Jul-31 21:34N 40°45' E 013°54'0 0.0
2014-Jul-31 20:34N 40°45' E 013°54'0 0.0
2014-Jul-31 19:34N 40°45' E 013°54'0 0.0
2014-Jul-31 18:33N 40°45' E 013°54'0 0.4
2014-Jul-31 17:34N 40°45' E 013°54'0 0.4
2014-Jul-31 16:33N 40°45' E 013°54'0 0.0
2014-Jul-31 15:33N 40°45' E 013°54'0 0.0
2014-Jul-31 14:33N 40°45' E 013°54'0 0.0
2014-Jul-31 13:33N 40°45' E 013°54'3 2.6
2014-Jul-31 12:33N 40°46' E 013°58'7 7.3
2014-Jul-31 11:33N 40°49' E 014°06'5 4.7
2014-Jul-31 10:33N 40°46' E 014°02'4 3.5
2014-Jul-31 09:33N 40°46' E 013°57'3 3.5
2014-Jul-31 08:33N 40°47' E 014°02'5 5.0
2014-Jul-31 07:33N 40°49' E 014°07'6 5.8
2014-Jul-31 06:33N 40°47' E 014°00'3 2.9
2014-Jul-31 05:33N 40°46' E 013°57'8 7.9
2014-Jul-31 04:33N 40°49' E 014°06'2 2.4
2014-Jul-31 03:33N 40°46' E 014°05'8 8.3
2014-Jul-31 02:33N 40°45' E 013°54'4 4.1
2014-Jul-31 01:33N 40°46' E 013°60'6 5.7
2014-Jul-31 00:33N 40°49' E 014°06'3 2.8
2014-Jul-30 23:33N 40°46' E 014°05'8 7.9
2014-Jul-30 22:33N 40°45' E 013°55'0 0.0
2014-Jul-30 21:33N 40°45' E 013°54'0 0.0
2014-Jul-30 20:33N 40°45' E 013°54'0 0.0
2014-Jul-30 19:33N 40°45' E 013°54'0 0.0
2014-Jul-30 18:33N 40°45' E 013°54'0 0.0
2014-Jul-30 17:33N 40°45' E 013°54'0 0.0
2014-Jul-30 16:33N 40°45' E 013°54'0 0.0
2014-Jul-30 15:33N 40°45' E 013°54'0 0.0
2014-Jul-30 14:33N 40°45' E 013°54'0 0.0
2014-Jul-30 13:33N 40°45' E 013°54'0 0.0
2014-Jul-30 12:34N 40°45' E 013°54'0 0.0
2014-Jul-30 11:33N 40°45' E 013°54'5 5.1
2014-Jul-30 10:34N 40°47' E 014°01'4 4.0
2014-Jul-30 09:34N 40°47' E 014°06'2 2.4
2014-Jul-30 08:33N 40°49' E 014°07'5 5.4
2014-Jul-30 07:33N 40°46' E 014°02'5 5.5
2014-Jul-30 06:34N 40°45' E 013°54'1 1.1
2014-Jul-30 05:33N 40°45' E 013°56'8 7.8
2014-Jul-30 04:34N 40°47' E 014°06'1 0.7
2014-Jul-30 03:34N 40°47' E 014°06'8 8.3
2014-Jul-30 02:33N 40°45' E 013°55'2 1.7
2014-Jul-30 01:34N 40°46' E 013°58'6 6.4
2014-Jul-30 00:33N 40°47' E 014°06'0 0.3
2014-Jul-29 23:34N 40°47' E 014°06'8 8.2
2014-Jul-29 22:33N 40°45' E 013°55'0 0.4
2014-Jul-29 21:34N 40°45' E 013°54'0 0.0
2014-Jul-29 20:33N 40°45' E 013°54'0 0.0
2014-Jul-29 19:33N 40°45' E 013°54'0 0.0
2014-Jul-29 18:34N 40°45' E 013°54'0 0.0
2014-Jul-29 17:33N 40°45' E 013°54'0 0.0
2014-Jul-29 16:33N 40°45' E 013°54'0 0.0
2014-Jul-29 15:33N 40°45' E 013°54'0 0.0
2014-Jul-29 14:33N 40°45' E 013°54'0 0.0
2014-Jul-29 13:33N 40°45' E 013°54'0 0.0
2014-Jul-29 12:33N 40°45' E 013°54'0 0.0
2014-Jul-29 11:33N 40°45' E 013°54'0 0.0
2014-Jul-29 10:33N 40°45' E 013°54'0 0.0
2014-Jul-29 09:33N 40°45' E 013°54'5 4.6
2014-Jul-29 08:33N 40°47' E 014°00'6 5.9
2014-Jul-29 07:33N 40°49' E 014°07'1 1.4
2014-Jul-29 06:33N 40°48' E 014°06'6 5.8
2014-Jul-29 05:33N 40°46' E 013°59'0 0.4
2014-Jul-29 04:33N 40°46' E 013°59'7 7.2
2014-Jul-29 03:33N 40°49' E 014°07'6 5.5
2014-Jul-29 02:33N 40°47' E 014°01'4 4.4
2014-Jul-29 01:33N 40°45' E 013°55'7 7.4
2014-Jul-29 00:33N 40°46' E 014°05'0 0.0
2014-Jul-28 23:33N 40°46' E 014°05'8 8.1
2014-Jul-28 22:33N 40°45' E 013°55'0 0.0
2014-Jul-28 21:33N 40°45' E 013°54'0 0.0
2014-Jul-28 20:33N 40°45' E 013°54'0 0.0
2014-Jul-28 19:33N 40°45' E 013°54'0 0.0
2014-Jul-28 18:33N 40°45' E 013°54'0 0.0
2014-Jul-28 17:33N 40°45' E 013°54'0 0.0
2014-Jul-28 16:33N 40°45' E 013°54'0 0.0
2014-Jul-28 15:33N 40°45' E 013°54'0 0.0
2014-Jul-28 14:33N 40°45' E 013°54'0 0.0
2014-Jul-28 13:33N 40°45' E 013°54'0 0.0
2014-Jul-28 12:33N 40°45' E 013°54'0 0.0
2014-Jul-28 11:33N 40°45' E 013°54'0 0.0
2014-Jul-28 10:33N 40°45' E 013°54'0 0.0
2014-Jul-28 09:33N 40°45' E 013°54'5 5.5
2014-Jul-28 08:33N 40°46' E 014°02'5 5.4
2014-Jul-28 07:34N 40°49' E 014°07'4 4.1
2014-Jul-28 06:34N 40°46' E 014°04'7 7.1
2014-Jul-28 05:33N 40°45' E 013°55'7 6.6
2014-Jul-28 04:34N 40°47' E 014°03'4 3.9
2014-Jul-28 03:34N 40°49' E 014°07'7 7.3
2014-Jul-28 02:34N 40°46' E 013°58'2 1.6
2014-Jul-28 01:34N 40°46' E 013°56'7 7.1
2014-Jul-28 00:33N 40°47' E 014°05'0 0.4
2014-Jul-27 23:33N 40°47' E 014°06'8 8.4
2014-Jul-27 22:34N 40°45' E 013°55'0 0.0
2014-Jul-26 10:27N 40°45' E 013°54'0 0.0
2014-Jul-26 09:33N 40°45' E 013°54'3 3.2
2014-Jul-26 08:33N 40°46' E 013°58'6 6.3
2014-Jul-26 07:33N 40°48' E 014°06'1 1.3
2014-Jul-26 06:33N 40°47' E 014°06'7 7.1
2014-Jul-26 05:33N 40°46' E 013°57'4 4.0
2014-Jul-26 04:34N 40°47' E 014°02'5 4.8
2014-Jul-26 03:33N 40°49' E 014°07'7 7.0
2014-Jul-26 02:33N 40°46' E 013°59'2 1.6
2014-Jul-26 01:33N 40°46' E 013°57'7 7.0
2014-Jul-26 00:33N 40°47' E 014°06'0 0.4
2014-Jul-25 23:33N 40°46' E 014°06'8 8.1
2014-Jul-25 22:33N 40°45' E 013°55'0 0.1
2014-Jul-25 16:33N 40°45' E 013°54'0 0.0
2014-Jul-25 15:33N 40°45' E 013°54'0 0.0
2014-Jul-25 14:33N 40°45' E 013°54'0 0.0
2014-Jul-25 13:33N 40°45' E 013°54'0 0.0
2014-Jul-25 12:33N 40°45' E 013°54'0 0.0
2014-Jul-25 11:33N 40°45' E 013°54'0 0.0
2014-Jul-25 10:34N 40°45' E 013°54'3 3.0
2014-Jul-25 09:34N 40°46' E 013°58'3 2.9
2014-Jul-25 08:33N 40°46' E 014°02'5 5.0
2014-Jul-25 07:34N 40°49' E 014°07'3 2.8
2014-Jul-25 06:33N 40°47' E 014°06'7 6.6
2014-Jul-25 05:34N 40°46' E 013°57'3 3.1
2014-Jul-25 04:34N 40°47' E 014°01'5 5.1
2014-Jul-25 03:32N 40°49' E 014°07'7 7.3
2014-Jul-25 02:34N 40°46' E 013°59'1 1.5
2014-Jul-25 01:34N 40°46' E 013°57'7 7.0
2014-Jul-25 00:34N 40°47' E 014°06'0 0.1
2014-Jul-24 23:34N 40°47' E 014°06'9 8.5
2014-Jul-24 22:34N 40°45' E 013°55'0 0.2
2014-Jul-24 21:33N 40°45' E 013°54'0 0.0
2014-Jul-24 20:33N 40°45' E 013°54'0 0.0
2014-Jul-24 19:33N 40°45' E 013°54'0 0.0
2014-Jul-24 18:33N 40°45' E 013°54'0 0.0
2014-Jul-24 17:33N 40°45' E 013°54'0 0.0
2014-Jul-24 16:33N 40°45' E 013°54'0 0.0
2014-Jul-24 12:25N 40°45' E 013°54'0 0.0
2014-Jul-24 11:34N 40°45' E 013°54'0 0.0
2014-Jul-24 10:33N 40°45' E 013°54'0 0.0
2014-Jul-24 09:33N 40°45' E 013°54'4 4.4
2014-Jul-24 08:34N 40°47' E 013°60'6 6.1
2014-Jul-24 07:34N 40°49' E 014°07'2 2.2
2014-Jul-24 06:34N 40°47' E 014°06'7 6.6
2014-Jul-24 05:34N 40°46' E 013°57'3 2.7
2014-Jul-24 04:34N 40°47' E 014°01'5 5.5
2014-Jul-24 03:34N 40°49' E 014°07'7 6.6
2014-Jul-24 02:34N 40°46' E 013°59'2 1.6
2014-Jul-24 01:33N 40°46' E 013°57'7 6.9
2014-Jul-24 00:33N 40°48' E 014°06'1 1.2
2014-Jul-23 23:34N 40°47' E 014°06'9 8.5
2014-Jul-23 22:33N 40°45' E 013°55'0 0.2
2014-Jul-23 21:33N 40°45' E 013°54'0 0.0
2014-Jul-23 20:33N 40°45' E 013°54'0 0.0
2014-Jul-23 14:17N 40°45' E 013°54'0 0.0
2014-Jul-23 11:34N 40°45' E 013°54'0 0.0
2014-Jul-23 10:33N 40°45' E 013°54'0 0.0
2014-Jul-23 09:33N 40°45' E 013°54'5 4.9
2014-Jul-23 08:33N 40°46' E 014°01'6 5.7
2014-Jul-23 07:33N 40°49' E 014°07'4 4.3
2014-Jul-23 06:33N 40°46' E 014°03'7 6.6
2014-Jul-23 05:33N 40°45' E 013°55'6 6.3
2014-Jul-23 04:33N 40°47' E 014°03'3 3.1
2014-Jul-23 03:33N 40°48' E 014°06'8 7.6
2014-Jul-23 02:33N 40°46' E 013°57'2 2.3
2014-Jul-23 01:33N 40°46' E 013°60'6 5.8
2014-Jul-23 00:33N 40°49' E 014°06'4 3.5
2014-Jul-22 23:33N 40°46' E 014°03'7 6.8
2014-Jul-22 22:33N 40°45' E 013°54'0 0.0
2014-Jul-22 21:33N 40°45' E 013°54'0 0.0
2014-Jul-22 20:33N 40°45' E 013°54'0 0.0
2014-Jul-22 19:33N 40°45' E 013°54'0 0.0
2014-Jul-22 18:33N 40°45' E 013°54'0 0.0
2014-Jul-22 15:07N 40°45' E 013°54'0 0.0
2014-Jul-22 11:33N 40°45' E 013°54'0 0.0
2014-Jul-22 10:34N 40°45' E 013°54'2 2.0
2014-Jul-22 09:33N 40°46' E 013°57'8 7.6
2014-Jul-22 08:33N 40°49' E 014°06'0 0.3
2014-Jul-22 07:33N 40°48' E 014°06'6 6.0
2014-Jul-22 06:33N 40°46' E 013°59'3 3.5
2014-Jul-22 05:34N 40°45' E 013°54'7 7.3
2014-Jul-22 04:33N 40°47' E 014°04'  

Dump ship's entire track history